createdAt,value
2024-03-04T00:00:25.453Z,8.07
2024-03-04T00:02:52.147Z,8.05
2024-03-04T00:05:18.924Z,8.02
2024-03-04T00:07:45.600Z,7.99
2024-03-04T00:10:12.320Z,7.97
2024-03-04T00:12:39.034Z,7.94
2024-03-04T00:15:06.589Z,7.91
2024-03-04T00:17:33.256Z,7.89
2024-03-04T00:19:59.964Z,7.88
2024-03-04T00:22:26.701Z,7.85
2024-03-04T00:24:53.361Z,7.82
2024-03-04T00:27:20.026Z,7.79
2024-03-04T00:29:46.728Z,7.76
2024-03-04T00:32:13.416Z,7.74
2024-03-04T00:34:40.171Z,7.71
2024-03-04T00:37:06.955Z,7.68
2024-03-04T00:39:33.614Z,7.65
2024-03-04T00:42:00.324Z,7.63
2024-03-04T00:44:26.952Z,7.61
2024-03-04T00:46:53.685Z,7.60
2024-03-04T00:49:20.407Z,7.58
2024-03-04T00:51:47.175Z,7.57
2024-03-04T00:54:13.841Z,7.55
2024-03-04T00:56:40.511Z,7.54
2024-03-04T00:59:07.234Z,7.52
2024-03-04T01:01:34.592Z,7.50
2024-03-04T01:04:01.332Z,7.47
2024-03-04T01:06:28.049Z,7.45
2024-03-04T01:08:55.708Z,7.42
2024-03-04T01:11:22.433Z,7.39
2024-03-04T01:13:49.118Z,7.37
2024-03-04T01:16:15.791Z,7.35
2024-03-04T01:18:42.668Z,7.30
2024-03-04T01:21:09.329Z,7.25
2024-03-04T01:23:36.007Z,7.22
2024-03-04T01:26:02.718Z,7.19
2024-03-04T01:28:29.509Z,7.16
2024-03-04T01:30:56.305Z,7.12
2024-03-04T01:33:23.003Z,7.08
2024-03-04T01:35:49.738Z,7.06
2024-03-04T01:38:16.534Z,7.02
2024-03-04T01:40:43.386Z,6.98
2024-03-04T01:43:10.033Z,6.95
2024-03-04T01:45:36.842Z,6.90
2024-03-04T01:48:05.431Z,6.88
2024-03-04T01:50:37.522Z,6.84
2024-03-04T01:53:05.602Z,6.82
2024-03-04T01:55:37.399Z,6.78
2024-03-04T01:58:05.138Z,6.75
2024-03-04T02:00:34.063Z,6.71
2024-03-04T02:03:01.389Z,6.68
2024-03-04T02:05:28.192Z,6.66
2024-03-04T02:07:54.885Z,6.63
2024-03-04T02:10:21.737Z,6.61
2024-03-04T02:12:48.895Z,6.58
2024-03-04T02:15:15.601Z,6.54
2024-03-04T02:17:42.441Z,6.53
2024-03-04T02:20:11.229Z,6.50
2024-03-04T02:22:38.277Z,6.49
2024-03-04T02:25:05.388Z,6.46
2024-03-04T02:27:32.153Z,6.44
2024-03-04T02:29:58.855Z,6.42
2024-03-04T02:32:25.604Z,6.40
2024-03-04T02:34:53.183Z,6.37
2024-03-04T02:37:19.957Z,6.35
2024-03-04T02:39:48.041Z,6.33
2024-03-04T02:42:14.724Z,6.26
2024-03-04T02:44:41.407Z,6.28
2024-03-04T02:47:08.126Z,6.26
2024-03-04T02:49:34.919Z,6.24
2024-03-04T02:52:01.634Z,6.21
2024-03-04T02:54:28.402Z,6.18
2024-03-04T02:56:55.093Z,6.15
2024-03-04T02:59:21.908Z,6.12
2024-03-04T03:01:48.688Z,6.10
2024-03-04T03:04:16.405Z,6.05
2024-03-04T03:06:43.432Z,6.02
2024-03-04T03:09:10.672Z,6.01
2024-03-04T03:11:37.609Z,5.95
2024-03-04T03:14:04.337Z,5.92
2024-03-04T03:16:31.072Z,5.89
2024-03-04T03:18:57.834Z,5.86
2024-03-04T03:21:25.254Z,5.84
2024-03-04T03:23:52.035Z,5.80
2024-03-04T03:26:19.032Z,5.78
2024-03-04T03:28:46.286Z,5.75
2024-03-04T03:31:13.049Z,5.72
2024-03-04T03:33:40.016Z,5.69
2024-03-04T03:36:07.281Z,5.67
2024-03-04T03:38:34.173Z,5.65
2024-03-04T03:41:02.131Z,5.64
2024-03-04T03:43:28.908Z,5.61
2024-03-04T03:45:55.760Z,5.61
2024-03-04T03:48:22.490Z,5.60
2024-03-04T03:50:49.156Z,5.58
2024-03-04T03:53:15.886Z,5.56
2024-03-04T03:55:42.726Z,5.55
2024-03-04T03:58:09.433Z,5.54
2024-03-04T04:00:36.082Z,5.53
2024-03-04T04:03:02.784Z,5.53
2024-03-04T04:05:29.503Z,5.53
2024-03-04T04:07:56.152Z,5.54
2024-03-04T04:10:22.871Z,5.55
2024-03-04T04:12:49.618Z,5.56
2024-03-04T04:15:16.401Z,5.61
2024-03-04T04:17:43.082Z,5.66
2024-03-04T04:20:10.267Z,5.73
2024-03-04T04:22:37.045Z,5.78
2024-03-04T04:25:04.024Z,5.86
2024-03-04T04:27:30.742Z,5.92
2024-03-04T04:29:57.422Z,5.99
2024-03-04T04:32:24.187Z,6.05
2024-03-04T04:34:50.842Z,6.10
2024-03-04T04:37:17.636Z,6.16
2024-03-04T04:39:44.361Z,6.22
2024-03-04T04:42:11.081Z,6.27
2024-03-04T04:44:37.846Z,6.31
2024-03-04T04:47:04.742Z,6.34
2024-03-04T04:49:31.474Z,6.38
2024-03-04T04:51:58.327Z,6.39
2024-03-04T04:54:25.089Z,6.41
2024-03-04T04:56:52.299Z,6.44
2024-03-04T04:59:18.963Z,6.46
2024-03-04T05:01:45.765Z,6.49
2024-03-04T05:04:31.452Z,6.53
2024-03-04T05:06:59.212Z,6.59
2024-03-04T05:09:25.877Z,6.67
2024-03-04T05:11:52.640Z,6.75
2024-03-04T05:14:19.426Z,6.83
2024-03-04T05:16:46.220Z,6.89
2024-03-04T05:19:12.911Z,6.96
2024-03-04T05:21:39.647Z,7.03
2024-03-04T05:24:06.641Z,7.09
2024-03-04T05:26:33.340Z,7.14
2024-03-04T05:29:00.033Z,7.20
2024-03-04T05:31:26.774Z,7.25
2024-03-04T05:33:53.466Z,7.30
2024-03-04T05:36:20.137Z,7.33
2024-03-04T05:38:46.817Z,7.36
2024-03-04T05:41:13.515Z,7.38
2024-03-04T05:43:40.219Z,7.42
2024-03-04T05:46:07.015Z,7.43
2024-03-04T05:48:33.766Z,7.46
2024-03-04T05:51:00.832Z,7.47
2024-03-04T05:53:27.497Z,7.48
2024-03-04T05:55:54.225Z,7.47
2024-03-04T05:58:20.957Z,7.47
2024-03-04T06:00:47.827Z,7.47
2024-03-04T06:03:14.521Z,7.47
2024-03-04T06:05:41.185Z,7.49
2024-03-04T06:08:07.857Z,7.50
2024-03-04T06:10:34.577Z,7.51
2024-03-04T06:13:01.285Z,7.53
2024-03-04T06:15:28.220Z,7.54
2024-03-04T06:17:55.004Z,7.55
2024-03-04T06:20:21.694Z,7.56
2024-03-04T06:22:48.422Z,7.57
2024-03-04T06:25:15.197Z,7.58
2024-03-04T06:27:41.975Z,7.60
2024-03-04T06:30:09.311Z,7.61
2024-03-04T06:32:36.023Z,7.62
2024-03-04T06:35:02.743Z,7.65
2024-03-04T06:37:29.505Z,7.66
2024-03-04T06:39:56.195Z,7.68
2024-03-04T06:42:22.929Z,7.69
2024-03-04T06:44:49.581Z,7.71
2024-03-04T06:47:16.578Z,7.71
2024-03-04T06:49:43.316Z,7.74
2024-03-04T06:52:10.157Z,7.75
2024-03-04T06:54:36.876Z,7.78
2024-03-04T06:57:03.554Z,7.81
2024-03-04T06:59:30.266Z,7.85
2024-03-04T07:01:56.964Z,7.89
2024-03-04T07:04:23.790Z,7.93
2024-03-04T07:06:50.538Z,8.01
2024-03-04T07:09:17.255Z,8.07
2024-03-04T07:11:44.125Z,8.14
2024-03-04T07:14:10.813Z,8.21
2024-03-04T07:16:37.659Z,8.28
2024-03-04T07:19:04.529Z,8.36
2024-03-04T07:21:31.234Z,8.45
2024-03-04T07:23:57.911Z,8.52
2024-03-04T07:26:24.630Z,8.59
2024-03-04T07:28:51.297Z,8.69
2024-03-04T07:31:18.043Z,8.79
2024-03-04T07:33:44.699Z,8.85
2024-03-04T07:36:14.194Z,8.90
2024-03-04T07:38:42.325Z,8.97
2024-03-04T07:41:09.059Z,9.03
2024-03-04T07:43:35.805Z,9.09
2024-03-04T07:46:02.852Z,9.16
2024-03-04T07:48:29.676Z,9.24
2024-03-04T07:50:56.436Z,9.32
2024-03-04T07:53:23.122Z,9.40
2024-03-04T07:55:49.837Z,9.47
2024-03-04T07:58:16.729Z,9.53
2024-03-04T08:00:43.532Z,9.61
2024-03-04T08:03:10.218Z,9.69
2024-03-04T08:05:36.864Z,9.73
2024-03-04T08:08:03.698Z,9.79
2024-03-04T08:10:30.473Z,9.87
2024-03-04T08:12:57.162Z,9.90
2024-03-04T08:15:23.794Z,9.94
2024-03-04T08:17:55.433Z,9.98
2024-03-04T08:20:33.213Z,10.02
2024-03-04T08:23:04.495Z,10.07
2024-03-04T08:25:31.324Z,10.10
2024-03-04T08:27:58.163Z,10.15
2024-03-04T08:30:24.841Z,10.21
2024-03-04T08:32:51.723Z,10.21
2024-03-04T08:35:18.596Z,10.28
2024-03-04T08:37:45.450Z,10.29
2024-03-04T08:40:12.339Z,10.33
2024-03-04T08:42:39.740Z,10.38
2024-03-04T08:45:06.780Z,10.42
2024-03-04T08:47:33.509Z,10.46
2024-03-04T08:50:00.218Z,10.49
2024-03-04T08:52:26.986Z,10.53
2024-03-04T08:54:53.696Z,10.57
2024-03-04T08:57:20.553Z,10.62
2024-03-04T08:59:47.255Z,10.69
2024-03-04T09:02:13.996Z,10.73
2024-03-04T09:04:40.839Z,10.76
2024-03-04T09:07:07.616Z,10.79
2024-03-04T09:09:34.355Z,10.82
2024-03-04T09:12:01.012Z,10.84
2024-03-04T09:14:27.670Z,10.85
2024-03-04T09:16:54.413Z,10.88
2024-03-04T09:19:21.162Z,10.91
2024-03-04T09:21:48.504Z,10.92
2024-03-04T09:24:15.224Z,10.94
2024-03-04T09:26:46.586Z,10.94
2024-03-04T09:29:13.632Z,10.94
2024-03-04T09:31:41.369Z,10.95
2024-03-04T09:34:08.242Z,11.00
2024-03-04T09:36:34.997Z,11.02
2024-03-04T09:39:01.959Z,11.07
2024-03-04T09:41:30.964Z,11.07
2024-03-04T09:43:58.836Z,11.10
2024-03-04T09:46:25.999Z,11.13
2024-03-04T09:48:54.059Z,11.17
2024-03-04T09:51:21.646Z,11.10
2024-03-04T09:53:51.328Z,11.15
2024-03-04T09:56:18.831Z,11.16
2024-03-04T09:58:46.477Z,11.19
2024-03-04T10:01:13.609Z,11.18
2024-03-04T10:03:40.505Z,11.22
2024-03-04T10:06:07.815Z,11.22
2024-03-04T10:08:34.560Z,11.24
2024-03-04T10:11:01.341Z,11.23
2024-03-04T10:13:29.501Z,11.23
2024-03-04T10:15:56.102Z,11.14
2024-03-04T10:18:22.777Z,11.21
2024-03-04T10:20:49.518Z,11.22
2024-03-04T10:23:18.819Z,11.21
2024-03-04T10:25:45.571Z,11.19
2024-03-04T10:28:12.378Z,11.22
2024-03-04T10:30:39.058Z,11.23
2024-03-04T10:33:05.844Z,11.23
2024-03-04T10:35:32.907Z,11.25
2024-03-04T10:38:01.079Z,11.27
2024-03-04T10:40:27.972Z,11.28
2024-03-04T10:42:57.654Z,11.29
2024-03-04T10:45:25.349Z,11.31
2024-03-04T10:47:52.571Z,11.30
2024-03-04T10:50:19.284Z,11.34
2024-03-04T10:52:46.073Z,11.33
2024-03-04T10:55:12.981Z,11.30
2024-03-04T10:57:44.203Z,11.29
2024-03-04T11:00:13.440Z,11.30
2024-03-04T11:02:51.689Z,11.29
2024-03-04T11:05:24.008Z,11.29
2024-03-04T11:07:53.103Z,11.32
2024-03-04T11:10:32.285Z,11.32
2024-03-04T11:13:30.245Z,11.32
2024-03-04T11:16:02.750Z,11.36
2024-03-04T11:19:02.999Z,11.36
2024-03-04T11:21:30.550Z,11.39
2024-03-04T11:23:58.135Z,11.40
2024-03-04T11:26:25.254Z,11.44
2024-03-04T11:28:54.536Z,11.46
2024-03-04T11:31:39.890Z,11.49
2024-03-04T11:34:08.083Z,11.51
2024-03-04T11:36:34.839Z,11.52
2024-03-04T11:39:05.809Z,11.50
2024-03-04T11:41:43.222Z,11.54
2024-03-04T11:44:10.051Z,11.54
2024-03-04T11:46:41.679Z,11.54
2024-03-04T11:49:31.725Z,11.56
2024-03-04T11:52:05.350Z,11.55
2024-03-04T11:54:35.035Z,11.55
2024-03-04T11:57:03.399Z,11.55
2024-03-04T11:59:30.759Z,11.56
2024-03-04T12:01:57.929Z,11.53
2024-03-04T12:04:25.329Z,11.55
2024-03-04T12:06:53.063Z,11.53
2024-03-04T12:09:43.853Z,11.54
2024-03-04T12:12:08.884Z,11.57
2024-03-04T12:14:35.600Z,11.60
2024-03-04T12:17:02.306Z,11.65
2024-03-04T12:19:29.079Z,11.69
2024-03-04T12:21:55.787Z,11.75
2024-03-04T12:24:22.848Z,11.75
2024-03-04T12:26:52.992Z,11.77
2024-03-04T12:29:24.435Z,11.83
2024-03-04T12:31:51.799Z,11.89
2024-03-04T12:34:20.638Z,11.93
2024-03-04T12:36:47.784Z,11.98
2024-03-04T12:39:14.514Z,12.02
2024-03-04T12:41:41.235Z,12.06
2024-03-04T12:44:08.003Z,12.09
2024-03-04T12:46:35.934Z,12.12
2024-03-04T12:49:05.930Z,12.19
2024-03-04T12:51:35.677Z,12.20
2024-03-04T12:54:03.461Z,12.20
2024-03-04T12:56:30.148Z,12.18
2024-03-04T12:58:56.877Z,12.18
2024-03-04T13:01:23.660Z,12.24
2024-03-04T13:03:50.394Z,12.25
2024-03-04T13:06:17.087Z,12.31
2024-03-04T13:08:43.845Z,12.32
2024-03-04T13:11:10.752Z,12.34
2024-03-04T13:13:37.632Z,12.35
2024-03-04T13:16:04.738Z,12.37
2024-03-04T13:18:31.512Z,12.39
2024-03-04T13:20:58.514Z,12.42
2024-03-04T13:23:25.171Z,12.49
2024-03-04T13:25:52.076Z,12.42
2024-03-04T13:28:18.902Z,12.42
2024-03-04T13:30:45.567Z,12.38
2024-03-04T13:33:12.303Z,12.36
2024-03-04T13:35:39.021Z,12.37
2024-03-04T13:38:05.721Z,12.35
2024-03-04T13:40:32.401Z,12.34
2024-03-04T13:43:08.473Z,12.29
2024-03-04T13:45:39.672Z,12.27
2024-03-04T13:48:06.860Z,12.23
2024-03-04T13:50:33.569Z,12.23
2024-03-04T13:53:00.245Z,12.25
2024-03-04T13:55:26.984Z,12.24
2024-03-04T13:57:53.691Z,12.24
2024-03-04T14:00:20.446Z,12.25
2024-03-04T14:02:47.118Z,12.23
2024-03-04T14:05:13.847Z,12.23
2024-03-04T14:07:41.404Z,12.31
2024-03-04T14:10:08.629Z,12.38
2024-03-04T14:12:35.341Z,12.32
2024-03-04T14:15:02.019Z,12.31
2024-03-04T14:17:30.871Z,12.26
2024-03-04T14:19:59.110Z,12.24
2024-03-04T14:22:25.949Z,12.22
2024-03-04T14:24:52.597Z,12.20
2024-03-04T14:27:19.296Z,12.20
2024-03-04T14:29:45.947Z,12.20
2024-03-04T14:32:12.771Z,12.20
2024-03-04T14:34:39.526Z,12.18
2024-03-04T14:37:06.256Z,12.19
2024-03-04T14:39:32.890Z,12.19
2024-03-04T14:41:59.521Z,12.21
2024-03-04T14:44:26.225Z,12.23
2024-03-04T14:46:52.959Z,12.24
2024-03-04T14:49:19.732Z,12.25
2024-03-04T14:51:46.517Z,12.26
2024-03-04T14:54:13.248Z,12.28
2024-03-04T14:56:39.914Z,12.30
2024-03-04T14:59:06.585Z,12.30
2024-03-04T15:01:33.358Z,12.30
2024-03-04T15:04:00.152Z,12.30
2024-03-04T15:06:27.117Z,12.31
2024-03-04T15:08:53.795Z,12.30
2024-03-04T15:11:20.594Z,12.32
2024-03-04T15:13:47.598Z,12.33
2024-03-04T15:16:14.445Z,12.33
2024-03-04T15:18:41.265Z,12.35
2024-03-04T15:21:08.191Z,12.36
2024-03-04T15:23:35.252Z,12.37
2024-03-04T15:26:05.214Z,12.37
2024-03-04T15:28:32.151Z,12.42
2024-03-04T15:30:58.927Z,12.43
2024-03-04T15:33:25.668Z,12.43
2024-03-04T15:35:56.774Z,12.44
2024-03-04T15:38:29.576Z,12.44
2024-03-04T15:40:56.363Z,12.45
2024-03-04T15:43:23.300Z,12.41
2024-03-04T15:45:50.118Z,12.38
2024-03-04T15:48:16.876Z,12.36
2024-03-04T15:50:43.714Z,12.33
2024-03-04T15:53:10.464Z,12.33
2024-03-04T15:55:37.255Z,12.30
2024-03-04T15:58:04.228Z,12.31
2024-03-04T16:00:30.932Z,12.25
2024-03-04T16:02:57.629Z,12.25
2024-03-04T16:05:24.319Z,12.22
2024-03-04T16:07:51.099Z,12.18
2024-03-04T16:10:17.863Z,12.16
2024-03-04T16:12:44.561Z,12.12
2024-03-04T16:15:11.278Z,12.10
2024-03-04T16:17:37.985Z,12.09
2024-03-04T16:20:05.573Z,12.07
2024-03-04T16:22:32.260Z,12.05
2024-03-04T16:24:58.997Z,12.02
2024-03-04T16:27:25.663Z,12.00
2024-03-04T16:29:52.362Z,11.98
2024-03-04T16:32:19.040Z,11.96
2024-03-04T16:34:45.917Z,11.95
2024-03-04T16:37:12.659Z,11.91
2024-03-04T16:39:39.398Z,11.90
2024-03-04T16:42:06.371Z,11.87
2024-03-04T16:44:33.049Z,11.87
2024-03-04T16:46:59.868Z,11.84
2024-03-04T16:49:26.617Z,11.80
2024-03-04T16:51:53.364Z,11.78
2024-03-04T16:54:20.164Z,11.76
2024-03-04T16:56:47.710Z,11.73
2024-03-04T16:59:14.823Z,11.69
2024-03-04T17:01:45.933Z,11.68
2024-03-04T17:04:14.832Z,11.64
2024-03-04T17:06:41.553Z,11.59
2024-03-04T17:09:08.326Z,11.56
2024-03-04T17:11:35.049Z,11.54
2024-03-04T17:14:01.774Z,11.51
2024-03-04T17:16:28.567Z,11.49
2024-03-04T17:18:55.464Z,11.46
2024-03-04T17:21:22.164Z,11.45
2024-03-04T17:23:48.874Z,11.43
2024-03-04T17:26:15.584Z,11.41
2024-03-04T17:28:42.264Z,11.41
2024-03-04T17:31:08.993Z,11.42
2024-03-04T17:33:35.710Z,11.39
2024-03-04T17:36:02.426Z,11.39
2024-03-04T17:38:29.093Z,11.39
2024-03-04T17:40:56.121Z,11.39
2024-03-04T17:43:22.913Z,11.40
2024-03-04T17:45:49.633Z,11.38
2024-03-04T17:48:16.427Z,11.38
2024-03-04T17:50:43.318Z,11.38
2024-03-04T17:53:10.010Z,11.37
2024-03-04T17:55:36.941Z,11.38
2024-03-04T17:58:03.747Z,11.38
2024-03-04T18:00:30.480Z,11.39
2024-03-04T18:02:57.148Z,11.38
2024-03-04T18:05:23.855Z,11.38
2024-03-04T18:07:50.589Z,11.38
2024-03-04T18:10:17.450Z,11.38
2024-03-04T18:12:44.141Z,11.38
2024-03-04T18:15:11.035Z,11.39
2024-03-04T18:17:37.833Z,11.38
2024-03-04T18:20:05.008Z,11.37
2024-03-04T18:22:31.775Z,11.35
2024-03-04T18:24:58.585Z,11.36
2024-03-04T18:27:25.262Z,11.36
2024-03-04T18:29:51.957Z,11.35
2024-03-04T18:32:18.623Z,11.36
2024-03-04T18:34:45.346Z,11.34
2024-03-04T18:37:12.027Z,11.33
2024-03-04T18:39:38.702Z,11.35
2024-03-04T18:42:05.495Z,11.33
2024-03-04T18:44:32.291Z,11.31
2024-03-04T18:46:59.002Z,11.30
2024-03-04T18:49:25.985Z,11.28
2024-03-04T18:51:52.739Z,11.25
2024-03-04T18:54:19.458Z,11.23
2024-03-04T18:56:46.171Z,11.21
2024-03-04T18:59:12.870Z,11.18
2024-03-04T19:01:39.688Z,11.14
2024-03-04T19:04:06.411Z,11.10
2024-03-04T19:06:33.156Z,11.06
2024-03-04T19:08:59.842Z,11.02
2024-03-04T19:11:26.613Z,10.97
2024-03-04T19:13:53.368Z,10.92
2024-03-04T19:16:20.149Z,10.86
2024-03-04T19:18:46.871Z,10.81
2024-03-04T19:21:17.648Z,10.77
2024-03-04T19:23:44.744Z,10.74
2024-03-04T19:26:18.216Z,10.72
2024-03-04T19:28:46.028Z,10.72
2024-03-04T19:31:22.606Z,10.70
2024-03-04T19:33:50.376Z,10.71
2024-03-04T19:36:17.408Z,10.72
2024-03-04T19:38:44.177Z,10.72
2024-03-04T19:41:21.193Z,10.72
2024-03-04T19:43:51.787Z,10.74
2024-03-04T19:46:19.916Z,10.76
2024-03-04T19:48:47.046Z,10.71
2024-03-04T19:51:14.204Z,10.77
2024-03-04T19:54:13.013Z,10.78
2024-03-04T19:56:39.811Z,10.81
2024-03-04T19:59:06.545Z,10.81
2024-03-04T20:01:33.371Z,10.81
2024-03-04T20:04:00.191Z,10.82
2024-03-04T20:06:26.869Z,10.82
2024-03-04T20:08:53.611Z,10.84
2024-03-04T20:11:20.945Z,10.86
2024-03-04T20:13:47.876Z,10.85
2024-03-04T20:16:15.464Z,10.84
2024-03-04T20:18:42.957Z,10.79
2024-03-04T20:21:10.829Z,10.76
2024-03-04T20:23:37.984Z,10.70
2024-03-04T20:26:08.986Z,10.65
2024-03-04T20:28:36.006Z,10.62
2024-03-04T20:31:03.373Z,10.58
2024-03-04T20:33:30.616Z,10.55
2024-03-04T20:35:57.334Z,10.52
2024-03-04T20:38:24.052Z,10.51
2024-03-04T20:40:50.952Z,10.51
2024-03-04T20:43:17.908Z,10.50
2024-03-04T20:45:44.790Z,10.51
2024-03-04T20:48:11.740Z,10.52
2024-03-04T20:50:39.456Z,10.52
2024-03-04T20:53:06.602Z,10.53
2024-03-04T20:55:33.460Z,10.54
2024-03-04T20:58:00.192Z,10.55
2024-03-04T21:00:26.877Z,10.57
2024-03-04T21:02:53.749Z,10.56
2024-03-04T21:05:22.371Z,10.56
2024-03-04T21:07:51.164Z,10.56
2024-03-04T21:10:19.791Z,10.57
2024-03-04T21:12:47.896Z,10.56
2024-03-04T21:15:14.733Z,10.49
2024-03-04T21:17:41.736Z,10.57
2024-03-04T21:20:09.820Z,10.58
2024-03-04T21:22:36.531Z,10.51
2024-03-04T21:25:03.464Z,10.57
2024-03-04T21:27:30.242Z,10.57
2024-03-04T21:29:59.730Z,10.61
2024-03-04T21:32:26.467Z,10.59
2024-03-04T21:34:53.173Z,10.61
2024-03-04T21:37:24.428Z,10.61
2024-03-04T21:39:54.891Z,10.62
2024-03-04T21:42:21.648Z,10.63
2024-03-04T21:44:48.391Z,10.64
2024-03-04T21:47:15.330Z,10.66
2024-03-04T21:49:42.127Z,10.68
2024-03-04T21:52:08.865Z,10.69
2024-03-04T21:54:35.548Z,10.70
2024-03-04T21:57:02.719Z,10.73
2024-03-04T21:59:29.509Z,10.73
2024-03-04T22:01:56.305Z,10.75
2024-03-04T22:04:23.145Z,10.76
2024-03-04T22:06:50.834Z,10.77
2024-03-04T22:09:18.641Z,10.78
2024-03-04T22:11:52.215Z,10.79
2024-03-04T22:14:19.637Z,10.79
2024-03-04T22:16:47.128Z,10.77
2024-03-04T22:19:14.254Z,10.77
2024-03-04T22:21:41.097Z,10.75
2024-03-04T22:24:08.352Z,10.74
2024-03-04T22:26:35.612Z,10.71
2024-03-04T22:29:05.146Z,10.70
2024-03-04T22:31:33.734Z,10.68
2024-03-04T22:34:00.487Z,10.67
2024-03-04T22:36:27.177Z,10.66
2024-03-04T22:38:53.889Z,10.64
2024-03-04T22:41:20.549Z,10.63
2024-03-04T22:43:47.301Z,10.62
2024-03-04T22:46:14.059Z,10.63
2024-03-04T22:48:40.738Z,10.62
2024-03-04T22:51:07.428Z,10.63
2024-03-04T22:53:34.251Z,10.62
2024-03-04T22:56:01.011Z,10.62
2024-03-04T22:58:27.773Z,10.62
2024-03-04T23:00:54.530Z,10.63
2024-03-04T23:03:24.257Z,10.62
2024-03-04T23:05:50.933Z,10.62
2024-03-04T23:08:17.600Z,10.63
2024-03-04T23:10:44.307Z,10.64
2024-03-04T23:13:11.038Z,10.64
2024-03-04T23:15:37.688Z,10.63
2024-03-04T23:18:04.856Z,10.65
2024-03-04T23:20:32.355Z,10.64
2024-03-04T23:22:59.225Z,10.65
2024-03-04T23:25:26.265Z,10.63
2024-03-04T23:27:52.926Z,10.62
2024-03-04T23:30:19.764Z,10.61
2024-03-04T23:32:46.520Z,10.62
2024-03-04T23:35:13.440Z,10.61
2024-03-04T23:37:40.355Z,10.60
2024-03-04T23:40:11.322Z,10.58
2024-03-04T23:42:38.794Z,10.58
2024-03-04T23:45:06.657Z,10.59
2024-03-04T23:47:33.355Z,10.57
2024-03-04T23:50:00.047Z,10.55
2024-03-04T23:52:26.825Z,10.52
2024-03-04T23:54:53.573Z,10.50
2024-03-04T23:57:20.308Z,10.48
2024-03-04T23:59:47.022Z,10.45
